Time;durP1;ratioP1;P1;durP2;ratioP2;P2;SDS_P1;SDS_P2;PMS_P1;PMS_P2;Temp;Humidity;BMP_temperature;BMP_pressure;BME280_temperature;BME280_humidity;BME280_pressure;Samples;Min_cycle;Max_cycle;Signal;HPM_P1;HPM_P2
2023/06/18 00:00:43;;;;;;;26.65;22.85;;;;;;;;;;4875023;28;20410;-88
2023/06/18 00:03:09;;;;;;;27.88;24.08;;;;;;;;;;4881877;28;20054;-88
2023/06/18 00:05:35;;;;;;;27.67;24.75;;;;;;;;;;4869144;28;20047;-88
2023/06/18 00:08:01;;;;;;;27.27;24.35;;;;;;;;;;4894890;28;20102;-88
2023/06/18 00:10:27;;;;;;;24.77;22.13;;;;;;;;;;4887932;28;22013;-88
2023/06/18 00:12:53;;;;;;;27.48;22.70;;;;;;;;;;4897561;28;20882;-88
2023/06/18 00:15:20;;;;;;;27.83;23.20;;;;;;;;;;4876417;28;20446;-88
2023/06/18 00:17:46;;;;;;;26.75;23.60;;;;;;;;;;4871458;28;20043;-88
2023/06/18 00:20:12;;;;;;;27.25;24.00;;;;;;;;;;4888954;28;20130;-88
2023/06/18 00:22:38;;;;;;;27.35;23.38;;;;;;;;;;4890305;28;20581;-88
2023/06/18 00:25:05;;;;;;;27.08;22.80;;;;;;;;;;4884093;28;20047;-88
2023/06/18 00:27:31;;;;;;;25.90;23.02;;;;;;;;;;4896332;29;20102;-88
2023/06/18 00:29:57;;;;;;;29.25;23.20;;;;;;;;;;4887430;28;20442;-87
2023/06/18 00:32:23;;;;;;;28.63;24.08;;;;;;;;;;4904778;28;20066;-88
2023/06/18 00:34:53;;;;;;;27.70;24.08;;;;;;;;;;4869394;28;20075;-88
2023/06/18 00:37:20;;;;;;;28.88;24.75;;;;;;;;;;4891137;28;20066;-88
2023/06/18 00:39:46;;;;;;;27.40;24.50;;;;;;;;;;4887136;28;20464;-88
2023/06/18 00:42:12;;;;;;;27.42;24.55;;;;;;;;;;4877849;28;22281;-88
2023/06/18 00:44:41;;;;;;;30.02;26.10;;;;;;;;;;4890264;28;20168;-87
2023/06/18 00:47:13;;;;;;;28.20;24.08;;;;;;;;;;4886922;28;20146;-88
2023/06/18 00:49:42;;;;;;;29.50;24.05;;;;;;;;;;4907660;28;20233;-88
2023/06/18 00:52:09;;;;;;;30.45;24.85;;;;;;;;;;4907766;29;20044;-88
2023/06/18 00:54:35;;;;;;;30.50;25.63;;;;;;;;;;4894824;28;20047;-88
2023/06/18 00:57:03;;;;;;;29.58;24.70;;;;;;;;;;4867284;28;20142;-88
2023/06/18 00:59:29;;;;;;;29.23;24.77;;;;;;;;;;4881824;28;20059;-89
2023/06/18 01:01:56;;;;;;;29.95;25.10;;;;;;;;;;4863342;28;20082;-88
2023/06/18 01:04:26;;;;;;;32.25;26.05;;;;;;;;;;4883102;28;20121;-88
2023/06/18 01:06:52;;;;;;;28.67;24.92;;;;;;;;;;4883237;28;20171;-88
2023/06/18 01:09:21;;;;;;;30.70;24.83;;;;;;;;;;4867950;28;20398;-88
2023/06/18 01:11:48;;;;;;;30.30;25.05;;;;;;;;;;4879834;28;20070;-88
2023/06/18 01:14:14;;;;;;;33.28;24.92;;;;;;;;;;4868011;28;20031;-88
2023/06/18 01:16:46;;;;;;;31.13;24.35;;;;;;;;;;4884532;28;22693;-88
2023/06/18 01:19:40;;;;;;;31.33;25.02;;;;;;;;;;4898889;28;20553;-88
2023/06/18 01:22:11;;;;;;;26.60;22.85;;;;;;;;;;4905491;28;20066;-88
2023/06/18 01:24:38;;;;;;;30.38;25.05;;;;;;;;;;4872991;28;20089;-88
2023/06/18 01:27:05;;;;;;;27.95;24.60;;;;;;;;;;4869764;28;20054;-88
2023/06/18 01:29:34;;;;;;;31.92;25.80;;;;;;;;;;4877342;29;20053;-88
2023/06/18 01:32:00;;;;;;;33.90;25.52;;;;;;;;;;4878316;28;20040;-88
2023/06/18 01:34:27;;;;;;;33.40;26.05;;;;;;;;;;4891572;28;20052;-87
2023/06/18 01:36:56;;;;;;;34.67;27.02;;;;;;;;;;4899079;28;20101;-87
2023/06/18 01:39:41;;;;;;;30.42;23.55;;;;;;;;;;4893981;28;20043;-88
2023/06/18 01:42:17;;;;;;;35.53;26.75;;;;;;;;;;4909570;28;20168;-88
2023/06/18 01:44:44;;;;;;;42.95;30.27;;;;;;;;;;4906269;28;20047;-87
2023/06/18 01:47:10;;;;;;;41.55;30.52;;;;;;;;;;4893313;28;20126;-87
2023/06/18 01:49:36;;;;;;;47.67;33.13;;;;;;;;;;4873873;28;20051;-87
2023/06/18 01:52:03;;;;;;;35.45;27.58;;;;;;;;;;4885764;28;20050;-87
2023/06/18 01:54:29;;;;;;;48.38;33.80;;;;;;;;;;4894443;28;20043;-87
2023/06/18 01:56:55;;;;;;;35.05;26.63;;;;;;;;;;4870900;28;20047;-87
2023/06/18 01:59:21;;;;;;;30.00;24.23;;;;;;;;;;4884304;28;20051;-87
2023/06/18 02:01:47;;;;;;;38.38;27.92;;;;;;;;;;4880519;28;20047;-87
2023/06/18 02:04:13;;;;;;;32.42;26.33;;;;;;;;;;4873630;28;20047;-87
2023/06/18 02:06:39;;;;;;;27.25;22.77;;;;;;;;;;4890019;28;20051;-87
2023/06/18 02:09:05;;;;;;;28.85;22.80;;;;;;;;;;4895680;28;23193;-87
2023/06/18 02:11:31;;;;;;;25.33;21.77;;;;;;;;;;4902478;28;20036;-88
2023/06/18 02:13:57;;;;;;;35.08;27.40;;;;;;;;;;4871845;28;22982;-87
2023/06/18 02:16:23;;;;;;;65.72;45.13;;;;;;;;;;4889879;28;20051;-87
2023/06/18 02:18:50;;;;;;;50.75;37.95;;;;;;;;;;4866926;28;20043;-88
2023/06/18 02:21:16;;;;;;;45.25;34.17;;;;;;;;;;4890011;28;20121;-88
2023/06/18 02:23:42;;;;;;;41.00;32.40;;;;;;;;;;4872280;28;20050;-87
2023/06/18 02:26:08;;;;;;;39.42;30.15;;;;;;;;;;4892889;28;20047;-88
2023/06/18 02:28:34;;;;;;;35.78;28.02;;;;;;;;;;4875689;28;20090;-87
2023/06/18 02:31:01;;;;;;;28.55;23.35;;;;;;;;;;4879919;28;22227;-88
2023/06/18 02:33:27;;;;;;;33.03;25.67;;;;;;;;;;4905940;28;20523;-88
2023/06/18 02:35:53;;;;;;;31.80;25.80;;;;;;;;;;4868070;28;20434;-88
2023/06/18 02:38:20;;;;;;;33.90;28.13;;;;;;;;;;4886001;28;20057;-87
2023/06/18 02:40:46;;;;;;;33.53;26.90;;;;;;;;;;4880879;28;20047;-87
2023/06/18 02:43:12;;;;;;;30.02;25.88;;;;;;;;;;4892721;28;20474;-88
2023/06/18 02:45:38;;;;;;;29.40;23.77;;;;;;;;;;4901863;28;20054;-88
2023/06/18 02:48:05;;;;;;;28.00;23.45;;;;;;;;;;4880420;28;20054;-88
2023/06/18 02:50:31;;;;;;;27.17;23.40;;;;;;;;;;4877064;28;20130;-87
2023/06/18 02:52:57;;;;;;;24.77;21.92;;;;;;;;;;4885998;28;20047;-87
2023/06/18 02:55:23;;;;;;;26.77;23.80;;;;;;;;;;4906441;28;20114;-87
2023/06/18 02:57:50;;;;;;;28.52;23.35;;;;;;;;;;4896524;28;20054;-88
2023/06/18 03:00:16;;;;;;;27.30;23.95;;;;;;;;;;4896089;28;20062;-88
2023/06/18 03:02:42;;;;;;;30.85;25.65;;;;;;;;;;4880159;28;20471;-87
2023/06/18 03:05:09;;;;;;;28.90;24.40;;;;;;;;;;4871525;28;20043;-88
2023/06/18 03:07:35;;;;;;;30.38;24.55;;;;;;;;;;4904399;28;20618;-87
2023/06/18 03:10:01;;;;;;;28.98;24.23;;;;;;;;;;4898857;28;20752;-87
2023/06/18 03:12:28;;;;;;;24.27;21.50;;;;;;;;;;4904471;28;20475;-87
2023/06/18 03:14:54;;;;;;;24.98;22.30;;;;;;;;;;4882616;28;20498;-87
2023/06/18 03:17:21;;;;;;;24.77;21.63;;;;;;;;;;4887722;28;20385;-87
2023/06/18 03:19:47;;;;;;;23.00;20.58;;;;;;;;;;4880551;28;20050;-88
2023/06/18 03:22:13;;;;;;;22.17;19.88;;;;;;;;;;4889035;28;20055;-87
2023/06/18 03:24:40;;;;;;;23.25;20.77;;;;;;;;;;4875993;28;20710;-87
2023/06/18 03:27:06;;;;;;;34.88;23.20;;;;;;;;;;4873459;28;20438;-88
2023/06/18 03:29:35;;;;;;;25.27;22.58;;;;;;;;;;4886938;28;20463;-87
2023/06/18 03:32:02;;;;;;;36.00;24.95;;;;;;;;;;4883562;28;20043;-87
2023/06/18 03:34:28;;;;;;;22.90;20.35;;;;;;;;;;4884911;28;20160;-87
2023/06/18 03:36:54;;;;;;;28.42;25.10;;;;;;;;;;4886856;28;20051;-88
2023/06/18 03:39:21;;;;;;;23.10;20.58;;;;;;;;;;4871810;28;20079;-87
2023/06/18 03:41:47;;;;;;;32.27;20.23;;;;;;;;;;4899154;28;20528;-87
2023/06/18 03:44:13;;;;;;;22.85;19.83;;;;;;;;;;4885821;28;20043;-87
2023/06/18 03:46:39;;;;;;;23.50;21.13;;;;;;;;;;4896720;28;20141;-87
2023/06/18 03:49:05;;;;;;;28.35;21.50;;;;;;;;;;4877637;28;20052;-87
2023/06/18 03:51:31;;;;;;;22.23;19.92;;;;;;;;;;4853685;29;20107;-87
2023/06/18 03:53:57;;;;;;;22.50;20.13;;;;;;;;;;4851301;29;20044;-87
2023/06/18 03:56:24;;;;;;;23.25;20.75;;;;;;;;;;4859806;29;20047;-87
2023/06/18 03:58:50;;;;;;;24.67;22.08;;;;;;;;;;4878972;29;20048;-87
2023/06/18 04:01:16;;;;;;;28.50;23.73;;;;;;;;;;4870738;29;20074;-87
2023/06/18 04:03:42;;;;;;;26.77;22.58;;;;;;;;;;4860646;29;20047;-87
2023/06/18 04:06:08;;;;;;;29.35;24.92;;;;;;;;;;4864380;29;20199;-88
2023/06/18 04:08:34;;;;;;;24.83;21.48;;;;;;;;;;4871775;29;21087;-87
2023/06/18 04:11:00;;;;;;;26.65;23.23;;;;;;;;;;4869218;29;20042;-88
2023/06/18 04:13:28;;;;;;;29.77;22.40;;;;;;;;;;4868751;29;20094;-87
2023/06/18 04:15:54;;;;;;;25.53;22.93;;;;;;;;;;4879658;29;20495;-87
2023/06/18 04:18:20;;;;;;;27.30;24.33;;;;;;;;;;4857755;29;23521;-87
2023/06/18 04:20:46;;;;;;;35.00;24.92;;;;;;;;;;4853443;29;20043;-88
2023/06/18 04:23:13;;;;;;;47.60;23.27;;;;;;;;;;4868598;29;20638;-87
2023/06/18 04:25:39;;;;;;;33.40;25.88;;;;;;;;;;4859931;29;20088;-87
2023/06/18 04:28:08;;;;;;;41.55;25.65;;;;;;;;;;4857107;29;20047;-87
2023/06/18 04:30:35;;;;;;;26.75;23.95;;;;;;;;;;4879712;29;20091;-87
2023/06/18 04:33:01;;;;;;;44.65;26.02;;;;;;;;;;4865977;28;22071;-87
2023/06/18 04:35:27;;;;;;;34.58;26.90;;;;;;;;;;4865975;29;20075;-87
2023/06/18 04:37:53;;;;;;;29.25;25.63;;;;;;;;;;4863921;28;20048;-87
2023/06/18 04:40:19;;;;;;;26.05;23.30;;;;;;;;;;4896952;29;20040;-87
2023/06/18 04:42:46;;;;;;;47.15;28.58;;;;;;;;;;4866657;28;20055;-88
2023/06/18 04:45:12;;;;;;;30.13;26.58;;;;;;;;;;4854978;29;20554;-88
2023/06/18 04:47:40;;;;;;;30.85;27.55;;;;;;;;;;4868163;28;20510;-88
2023/06/18 04:50:07;;;;;;;32.35;26.70;;;;;;;;;;4880134;28;20047;-87
2023/06/18 04:52:33;;;;;;;28.70;25.42;;;;;;;;;;4872784;28;21241;-88
2023/06/18 04:54:59;;;;;;;33.17;28.77;;;;;;;;;;4885708;28;20051;-87
2023/06/18 04:57:25;;;;;;;36.65;28.42;;;;;;;;;;4902704;28;20510;-87
2023/06/18 04:59:51;;;;;;;30.45;27.23;;;;;;;;;;4894605;28;20402;-88
2023/06/18 05:02:18;;;;;;;34.60;29.13;;;;;;;;;;4888213;28;20609;-87
2023/06/18 05:04:44;;;;;;;35.15;30.00;;;;;;;;;;4884121;28;20450;-87
2023/06/18 05:07:10;;;;;;;34.10;28.25;;;;;;;;;;4915271;28;20039;-88
2023/06/18 05:09:36;;;;;;;38.15;29.17;;;;;;;;;;4886861;28;20043;-88
2023/06/18 05:12:03;;;;;;;35.20;29.13;;;;;;;;;;4873386;28;20138;-88
2023/06/18 05:14:29;;;;;;;34.33;28.30;;;;;;;;;;4890892;28;20494;-88
2023/06/18 05:16:55;;;;;;;30.83;27.15;;;;;;;;;;4866406;28;20580;-88
2023/06/18 05:19:21;;;;;;;30.05;26.80;;;;;;;;;;4873141;28;20051;-88
2023/06/18 05:21:47;;;;;;;31.30;27.92;;;;;;;;;;4869574;28;20134;-88
2023/06/18 05:24:13;;;;;;;31.95;28.55;;;;;;;;;;4906405;28;20083;-88
2023/06/18 05:26:39;;;;;;;32.55;28.42;;;;;;;;;;4893444;28;20459;-88
2023/06/18 05:29:05;;;;;;;32.83;28.67;;;;;;;;;;4885255;28;20555;-88
2023/06/18 05:31:31;;;;;;;32.10;28.17;;;;;;;;;;4873893;28;20043;-87
2023/06/18 05:33:57;;;;;;;34.17;30.10;;;;;;;;;;4870656;28;20079;-88
2023/06/18 05:36:24;;;;;;;35.05;29.83;;;;;;;;;;4872456;28;20173;-88
2023/06/18 05:38:52;;;;;;;35.50;29.47;;;;;;;;;;4868353;28;20047;-88
2023/06/18 05:41:18;;;;;;;34.08;30.15;;;;;;;;;;4906227;28;20423;-88
2023/06/18 05:43:44;;;;;;;35.78;30.73;;;;;;;;;;4891579;28;20470;-88
2023/06/18 05:46:10;;;;;;;34.53;29.58;;;;;;;;;;4900076;28;20389;-88
2023/06/18 05:48:36;;;;;;;37.78;32.30;;;;;;;;;;4905215;28;20503;-88
2023/06/18 05:51:02;;;;;;;35.28;29.95;;;;;;;;;;4890662;28;20113;-88
2023/06/18 05:53:28;;;;;;;35.85;31.65;;;;;;;;;;4916751;28;20042;-88
2023/06/18 05:55:54;;;;;;;35.15;31.17;;;;;;;;;;4901080;28;20053;-88
2023/06/18 05:58:21;;;;;;;36.33;30.45;;;;;;;;;;4910672;28;20067;-88
2023/06/18 06:00:47;;;;;;;36.28;31.00;;;;;;;;;;4882847;28;20050;-83
2023/06/18 06:03:13;;;;;;;34.40;30.58;;;;;;;;;;4919272;28;20042;-83
2023/06/18 06:05:39;;;;;;;35.63;31.15;;;;;;;;;;4901624;28;20406;-83
2023/06/18 06:08:06;;;;;;;32.40;28.90;;;;;;;;;;4914468;28;20057;-83
2023/06/18 06:10:32;;;;;;;33.78;29.33;;;;;;;;;;4906293;28;20280;-83
2023/06/18 06:12:58;;;;;;;35.70;30.85;;;;;;;;;;4902557;28;20574;-83
2023/06/18 06:15:24;;;;;;;34.15;29.20;;;;;;;;;;4925420;28;20046;-83
2023/06/18 06:17:50;;;;;;;33.80;29.63;;;;;;;;;;4901329;28;20039;-83
2023/06/18 06:20:16;;;;;;;31.92;27.95;;;;;;;;;;4921921;28;20066;-83
2023/06/18 06:22:42;;;;;;;30.45;27.13;;;;;;;;;;4885495;28;20066;-83
2023/06/18 06:25:09;;;;;;;34.70;30.27;;;;;;;;;;4900636;28;20031;-83
2023/06/18 06:27:35;;;;;;;33.55;28.75;;;;;;;;;;4897433;28;20043;-83
2023/06/18 06:30:01;;;;;;;31.20;27.83;;;;;;;;;;4888242;28;24524;-83
2023/06/18 06:32:30;;;;;;;30.63;27.30;;;;;;;;;;4912671;28;20047;-83
2023/06/18 06:34:56;;;;;;;34.45;28.80;;;;;;;;;;4882711;28;20043;-83
2023/06/18 06:37:22;;;;;;;34.30;28.85;;;;;;;;;;4915994;28;21226;-83
2023/06/18 06:39:48;;;;;;;29.92;26.58;;;;;;;;;;4911381;28;20043;-83
2023/06/18 06:42:14;;;;;;;30.80;27.40;;;;;;;;;;4921062;28;20043;-83
2023/06/18 06:44:40;;;;;;;31.70;27.35;;;;;;;;;;4916558;28;20035;-83
2023/06/18 06:47:07;;;;;;;32.75;26.58;;;;;;;;;;4906568;28;20062;-83
2023/06/18 06:49:33;;;;;;;29.85;25.83;;;;;;;;;;4913971;28;20063;-83
2023/06/18 06:51:59;;;;;;;29.88;26.52;;;;;;;;;;4912435;28;20062;-83
2023/06/18 06:54:25;;;;;;;27.75;24.58;;;;;;;;;;4882695;28;20035;-83
2023/06/18 06:56:51;;;;;;;27.23;24.05;;;;;;;;;;4906108;28;20130;-83
2023/06/18 06:59:17;;;;;;;30.73;26.73;;;;;;;;;;4922687;28;20141;-83
2023/06/18 07:01:43;;;;;;;29.13;26.05;;;;;;;;;;4906629;28;20039;-83
2023/06/18 07:04:10;;;;;;;27.35;24.35;;;;;;;;;;4931392;28;20435;-83
2023/06/18 07:06:38;;;;;;;25.65;22.25;;;;;;;;;;4899337;28;20058;-83
2023/06/18 07:09:05;;;;;;;23.98;21.48;;;;;;;;;;4897841;28;23288;-83
2023/06/18 07:11:33;;;;;;;26.92;23.92;;;;;;;;;;4927054;28;20087;-83
2023/06/18 07:13:59;;;;;;;25.27;22.58;;;;;;;;;;4928529;28;20565;-83
2023/06/18 07:16:25;;;;;;;22.63;20.10;;;;;;;;;;4900088;28;20486;-83
2023/06/18 07:18:51;;;;;;;23.92;20.80;;;;;;;;;;4895340;28;20175;-83
2023/06/18 07:21:17;;;;;;;22.38;20.05;;;;;;;;;;4898336;28;20074;-83
2023/06/18 07:23:43;;;;;;;20.75;18.40;;;;;;;;;;4894191;28;20042;-83
2023/06/18 07:26:09;;;;;;;20.00;17.20;;;;;;;;;;4902276;28;20047;-83
2023/06/18 07:28:35;;;;;;;18.75;16.88;;;;;;;;;;4912622;28;20042;-83
2023/06/18 07:31:02;;;;;;;19.45;17.45;;;;;;;;;;4897766;28;21382;-83
2023/06/18 07:33:28;;;;;;;18.38;16.48;;;;;;;;;;4899007;28;20375;-83
2023/06/18 07:35:54;;;;;;;18.23;16.27;;;;;;;;;;4926993;28;20042;-83
2023/06/18 07:38:22;;;;;;;22.85;17.23;;;;;;;;;;4902083;28;20049;-83
2023/06/18 07:40:48;;;;;;;20.35;16.88;;;;;;;;;;4910521;28;20038;-83
2023/06/18 07:43:14;;;;;;;18.80;16.23;;;;;;;;;;4904149;28;20138;-84
2023/06/18 07:45:41;;;;;;;16.20;13.68;;;;;;;;;;4895795;28;20062;-83
2023/06/18 07:48:09;;;;;;;16.65;14.80;;;;;;;;;;4934896;28;20441;-83
2023/06/18 07:50:35;;;;;;;17.67;15.68;;;;;;;;;;4899577;28;20046;-83
2023/06/18 07:53:01;;;;;;;16.13;14.23;;;;;;;;;;4934136;28;23452;-83
2023/06/18 07:55:27;;;;;;;17.17;14.40;;;;;;;;;;4902161;28;20043;-83
2023/06/18 07:57:54;;;;;;;16.05;14.48;;;;;;;;;;4901312;28;20102;-84
2023/06/18 08:00:20;;;;;;;17.67;15.88;;;;;;;;;;4918887;28;20050;-83
2023/06/18 08:02:46;;;;;;;16.08;14.18;;;;;;;;;;4879605;28;20043;-83
2023/06/18 08:05:13;;;;;;;17.85;15.98;;;;;;;;;;4931065;28;20039;-84
2023/06/18 08:07:39;;;;;;;16.42;14.75;;;;;;;;;;4928516;28;20095;-89
2023/06/18 08:10:05;;;;;;;18.75;15.75;;;;;;;;;;4898597;28;20044;-89
2023/06/18 08:12:32;;;;;;;17.25;14.43;;;;;;;;;;4889767;28;20039;-89
2023/06/18 08:14:58;;;;;;;17.50;15.80;;;;;;;;;;4900290;28;20035;-89
2023/06/18 08:17:24;;;;;;;16.35;14.75;;;;;;;;;;4894998;28;20142;-89
2023/06/18 08:19:50;;;;;;;17.80;16.05;;;;;;;;;;4913498;28;20070;-90
2023/06/18 08:22:16;;;;;;;17.45;15.57;;;;;;;;;;4893423;29;20395;-89
2023/06/18 08:24:42;;;;;;;15.13;13.52;;;;;;;;;;4911341;28;20093;-89
2023/06/18 08:27:08;;;;;;;15.13;13.68;;;;;;;;;;4910213;28;20395;-90
2023/06/18 08:29:35;;;;;;;14.73;13.13;;;;;;;;;;4890602;28;20360;-88
2023/06/18 08:32:04;;;;;;;14.90;13.27;;;;;;;;;;4888300;28;22444;-88
2023/06/18 08:34:42;;;;;;;13.30;11.95;;;;;;;;;;4894410;28;20140;-89
2023/06/18 08:37:08;;;;;;;12.60;11.45;;;;;;;;;;4877989;28;20190;-89
2023/06/18 08:39:34;;;;;;;14.88;13.25;;;;;;;;;;4885905;28;20139;-89
2023/06/18 08:42:00;;;;;;;15.48;12.77;;;;;;;;;;4899974;28;20126;-89
2023/06/18 08:44:27;;;;;;;13.50;12.02;;;;;;;;;;4917523;28;20570;-89
2023/06/18 08:46:59;;;;;;;13.52;12.13;;;;;;;;;;4913577;28;20059;-89
2023/06/18 08:49:26;;;;;;;12.20;10.77;;;;;;;;;;4922826;28;20047;-86
2023/06/18 08:51:52;;;;;;;12.50;11.20;;;;;;;;;;4899629;28;20047;-88
2023/06/18 08:54:18;;;;;;;14.70;12.05;;;;;;;;;;4889382;28;20146;-88
2023/06/18 08:56:45;;;;;;;11.02;9.93;;;;;;;;;;4901873;28;20114;-88
2023/06/18 08:59:11;;;;;;;11.40;10.07;;;;;;;;;;4910786;28;20059;-88
2023/06/18 09:01:37;;;;;;;10.98;9.88;;;;;;;;;;4893132;28;20069;-89
2023/06/18 09:04:04;;;;;;;12.50;9.63;;;;;;;;;;4903513;28;20043;-88
2023/06/18 09:06:30;;;;;;;10.90;10.00;;;;;;;;;;4906026;28;20039;-88
2023/06/18 09:08:58;;;;;;;10.30;9.40;;;;;;;;;;4880269;28;20074;-88
2023/06/18 09:11:24;;;;;;;9.02;8.18;;;;;;;;;;4907541;28;20494;-88
2023/06/18 09:13:50;;;;;;;10.85;8.10;;;;;;;;;;4901843;28;20438;-87
2023/06/18 09:16:16;;;;;;;9.60;8.15;;;;;;;;;;4893380;28;20055;-89
2023/06/18 09:18:42;;;;;;;9.73;8.43;;;;;;;;;;4879637;28;20043;-89
2023/06/18 09:21:08;;;;;;;9.73;7.60;;;;;;;;;;4907699;28;20039;-88
2023/06/18 09:23:41;;;;;;;10.25;7.45;;;;;;;;;;4910133;28;20120;-88
2023/06/18 09:26:07;;;;;;;8.05;7.35;;;;;;;;;;4885862;28;20042;-89
2023/06/18 09:28:33;;;;;;;7.28;6.55;;;;;;;;;;4900279;28;20047;-89
2023/06/18 09:31:00;;;;;;;8.60;6.40;;;;;;;;;;4901383;28;20082;-90
2023/06/18 09:33:35;;;;;;;7.20;6.60;;;;;;;;;;4903242;28;20079;-89
2023/06/18 09:36:01;;;;;;;7.40;5.97;;;;;;;;;;4901637;28;22130;-88
2023/06/18 09:38:39;;;;;;;6.18;5.68;;;;;;;;;;4916304;28;20039;-88
2023/06/18 09:41:12;;;;;;;5.85;5.30;;;;;;;;;;4910170;28;20044;-88
2023/06/18 09:43:39;;;;;;;7.85;7.05;;;;;;;;;;4898084;28;20093;-88
2023/06/18 09:46:06;;;;;;;6.90;6.25;;;;;;;;;;4900007;28;20071;-89
2023/06/18 09:48:35;;;;;;;7.57;6.65;;;;;;;;;;4894114;28;20063;-89
2023/06/18 09:51:02;;;;;;;8.00;5.90;;;;;;;;;;4938438;28;21349;-89
2023/06/18 09:53:28;;;;;;;8.52;6.05;;;;;;;;;;4908942;28;20098;-90
2023/06/18 09:55:55;;;;;;;8.98;6.13;;;;;;;;;;4882678;28;20046;-89
2023/06/18 09:58:32;;;;;;;6.63;5.88;;;;;;;;;;4905538;28;20074;-89
2023/06/18 10:01:02;;;;;;;6.95;6.25;;;;;;;;;;4883981;28;20043;-89
2023/06/18 10:03:31;;;;;;;6.55;6.05;;;;;;;;;;4907469;28;20505;-89
2023/06/18 10:05:59;;;;;;;7.18;6.47;;;;;;;;;;4945239;28;20050;-89
2023/06/18 10:08:25;;;;;;;6.53;5.90;;;;;;;;;;4897996;28;20100;-89
2023/06/18 10:10:51;;;;;;;6.65;5.68;;;;;;;;;;4885317;28;20497;-89
2023/06/18 10:13:17;;;;;;;6.55;5.95;;;;;;;;;;4890644;28;20086;-89
2023/06/18 10:15:43;;;;;;;7.18;6.47;;;;;;;;;;4905742;28;20055;-88
2023/06/18 10:18:10;;;;;;;6.53;5.93;;;;;;;;;;4892749;28;20058;-88
2023/06/18 10:20:36;;;;;;;7.93;6.60;;;;;;;;;;4891226;28;20047;-89
2023/06/18 10:23:04;;;;;;;7.30;6.60;;;;;;;;;;4889518;28;20097;-89
2023/06/18 10:25:32;;;;;;;6.90;6.20;;;;;;;;;;4906298;28;20462;-89
2023/06/18 10:27:58;;;;;;;6.72;6.20;;;;;;;;;;4906988;28;20050;-91
2023/06/18 10:30:27;;;;;;;6.85;6.15;;;;;;;;;;4888184;28;20042;-87
2023/06/18 10:32:53;;;;;;;6.82;6.22;;;;;;;;;;4924031;28;20480;-87
2023/06/18 10:35:21;;;;;;;7.30;6.45;;;;;;;;;;4921841;28;20090;-89
2023/06/18 10:37:49;;;;;;;6.75;6.05;;;;;;;;;;4896178;28;20047;-89
2023/06/18 10:40:15;;;;;;;6.45;5.85;;;;;;;;;;4893503;29;20047;-90
2023/06/18 10:42:48;;;;;;;7.57;6.60;;;;;;;;;;4911150;28;20090;-87
2023/06/18 10:45:14;;;;;;;7.68;6.43;;;;;;;;;;4892992;28;20035;-89
2023/06/18 10:47:41;;;;;;;7.95;6.38;;;;;;;;;;4929852;28;20062;-89
2023/06/18 10:50:07;;;;;;;7.25;6.57;;;;;;;;;;4915956;29;20506;-88
2023/06/18 10:52:34;;;;;;;6.82;5.97;;;;;;;;;;4915315;28;20036;-89
2023/06/18 10:55:09;;;;;;;6.97;6.27;;;;;;;;;;4904637;28;20122;-88
2023/06/18 10:57:36;;;;;;;6.47;5.78;;;;;;;;;;4930220;28;20326;-88
2023/06/18 11:00:13;;;;;;;7.38;6.05;;;;;;;;;;4925168;28;20134;-89
2023/06/18 11:02:39;;;;;;;6.40;5.80;;;;;;;;;;4921060;28;20098;-89
2023/06/18 11:05:06;;;;;;;6.57;6.05;;;;;;;;;;4938115;28;20054;-88
2023/06/18 11:07:32;;;;;;;6.50;5.90;;;;;;;;;;4895942;29;20067;-88
2023/06/18 11:10:01;;;;;;;7.38;6.68;;;;;;;;;;4894860;28;20367;-89
2023/06/18 11:12:31;;;;;;;6.22;5.63;;;;;;;;;;4889815;28;20047;-89
2023/06/18 11:15:20;;;;;;;6.90;6.30;;;;;;;;;;4876827;28;20122;-89
2023/06/18 11:17:49;;;;;;;6.53;5.93;;;;;;;;;;4899581;28;20051;-88
2023/06/18 11:20:16;;;;;;;6.72;6.05;;;;;;;;;;4910548;28;20094;-89
2023/06/18 11:22:42;;;;;;;6.85;5.88;;;;;;;;;;4907765;28;20130;-90
2023/06/18 11:25:20;;;;;;;5.88;5.38;;;;;;;;;;4889407;28;20474;-90
2023/06/18 11:27:46;;;;;;;6.85;6.15;;;;;;;;;;4878158;28;20574;-89
2023/06/18 11:30:13;;;;;;;6.78;6.18;;;;;;;;;;4893231;29;20047;-89
2023/06/18 11:32:40;;;;;;;7.15;6.13;;;;;;;;;;4896143;28;20040;-89
2023/06/18 11:35:12;;;;;;;6.40;5.53;;;;;;;;;;4877004;28;20043;-89
2023/06/18 11:37:38;;;;;;;5.90;5.40;;;;;;;;;;4905168;28;20035;-90
2023/06/18 11:40:25;;;;;;;5.68;5.10;;;;;;;;;;4885908;28;20039;-90
2023/06/18 11:42:52;;;;;;;6.43;5.55;;;;;;;;;;4905244;28;20498;-89
2023/06/18 11:45:25;;;;;;;6.68;5.30;;;;;;;;;;4899328;28;20050;-89
2023/06/18 11:47:52;;;;;;;6.40;5.80;;;;;;;;;;4892431;28;20047;-89
2023/06/18 11:50:19;;;;;;;6.30;5.80;;;;;;;;;;4889338;28;20494;-89
2023/06/18 11:52:45;;;;;;;;;;;;;;;;;;4903391;28;20051;-88
2023/06/18 11:55:12;;;;;;;6.45;5.93;;;;;;;;;;4896483;29;19923;-89
2023/06/18 11:57:43;;;;;;;6.07;5.57;;;;;;;;;;4881658;28;20054;-89
2023/06/18 12:03:12;;;;;;;6.53;6.03;;;;;;;;;;6027853;23;20371;-83
2023/06/18 12:05:47;;;;;;;7.15;5.93;;;;;;;;;;4922756;28;20138;-83
2023/06/18 12:08:34;;;;;;;5.93;5.43;;;;;;;;;;4913942;28;20403;-85
2023/06/18 12:11:34;;;;;;;;;;;;;;;;;;;;;
2023/06/18 12:14:13;;;;;;;6.70;5.68;;;;;;;;;;4941255;28;20045;-84
2023/06/18 12:17:13;;;;;;;6.80;6.03;;;;;;;;;;4929154;28;20409;-85
2023/06/18 12:19:43;;;;;;;6.78;6.00;;;;;;;;;;4940714;28;20043;-83
2023/06/18 12:22:39;;;;;;;6.47;5.85;;;;;;;;;;4912592;28;20053;-83
2023/06/18 12:25:08;;;;;;;6.30;5.80;;;;;;;;;;4935657;28;20070;-83
2023/06/18 12:27:49;;;;;;;8.70;6.60;;;;;;;;;;4911815;28;20125;-84
2023/06/18 12:30:28;;;;;;;7.20;6.40;;;;;;;;;;4943478;28;20050;-84
2023/06/18 12:33:02;;;;;;;7.22;6.03;;;;;;;;;;4938155;28;21324;-83
2023/06/18 12:35:34;;;;;;;6.25;5.65;;;;;;;;;;4925413;28;20054;-84
2023/06/18 12:38:01;;;;;;;6.45;5.85;;;;;;;;;;4919000;28;20042;-83
2023/06/18 12:40:36;;;;;;;7.97;6.07;;;;;;;;;;4925928;28;20134;-84
2023/06/18 12:43:29;;;;;;;7.03;5.90;;;;;;;;;;4954621;28;20441;-85
2023/06/18 12:46:23;;;;;;;6.38;5.82;;;;;;;;;;4952662;28;20069;-84
2023/06/18 12:49:17;;;;;;;6.25;5.68;;;;;;;;;;4943487;28;20066;-84
2023/06/18 12:51:57;;;;;;;6.53;5.93;;;;;;;;;;4910792;28;20069;-83
2023/06/18 12:54:28;;;;;;;7.10;6.47;;;;;;;;;;4936213;28;20050;-83
2023/06/18 12:57:01;;;;;;;6.97;6.10;;;;;;;;;;4913708;28;20050;-83
2023/06/18 12:59:31;;;;;;;7.20;6.50;;;;;;;;;;4922851;28;20039;-83
2023/06/18 13:02:00;;;;;;;6.80;6.10;;;;;;;;;;4942950;28;20089;-84
2023/06/18 13:04:37;;;;;;;7.80;6.30;;;;;;;;;;4929389;28;20479;-85
2023/06/18 13:07:09;;;;;;;6.82;6.30;;;;;;;;;;4907182;28;20077;-84
2023/06/18 13:09:43;;;;;;;6.90;6.35;;;;;;;;;;4924308;28;20551;-85
2023/06/18 13:12:22;;;;;;;7.55;6.60;;;;;;;;;;4926418;28;20061;-85
2023/06/18 13:14:48;;;;;;;7.00;6.40;;;;;;;;;;4918249;28;20042;-85
2023/06/18 13:17:25;;;;;;;7.53;5.97;;;;;;;;;;4911397;28;20885;-85
2023/06/18 13:19:57;;;;;;;7.70;7.00;;;;;;;;;;4921364;28;20058;-85
2023/06/18 13:22:48;;;;;;;6.95;6.35;;;;;;;;;;4924150;28;20858;-85
2023/06/18 13:25:26;;;;;;;7.05;6.38;;;;;;;;;;4935013;28;20057;-86
2023/06/18 13:28:04;;;;;;;6.50;6.00;;;;;;;;;;4905857;28;20046;-84
2023/06/18 13:30:36;;;;;;;8.05;6.43;;;;;;;;;;4922895;28;20769;-85
2023/06/18 13:33:08;;;;;;;7.32;6.72;;;;;;;;;;4915305;28;20541;-85
2023/06/18 13:35:36;;;;;;;10.65;6.68;;;;;;;;;;4944029;28;20313;-85
2023/06/18 13:38:17;;;;;;;6.72;5.93;;;;;;;;;;4909118;28;20077;-85
2023/06/18 13:40:50;;;;;;;7.28;6.57;;;;;;;;;;4910508;28;20049;-85
2023/06/18 13:43:25;;;;;;;7.10;6.55;;;;;;;;;;4932144;28;21367;-84
2023/06/18 13:46:03;;;;;;;7.15;6.55;;;;;;;;;;4908902;28;20487;-85
2023/06/18 13:48:29;;;;;;;7.80;7.10;;;;;;;;;;4930102;28;20058;-85
2023/06/18 13:51:04;;;;;;;7.13;6.53;;;;;;;;;;4906601;28;20519;-84
2023/06/18 13:53:30;;;;;;;10.18;7.13;;;;;;;;;;4928480;28;20053;-85
2023/06/18 13:56:06;;;;;;;7.22;6.53;;;;;;;;;;4925693;28;20050;-85
2023/06/18 13:58:32;;;;;;;7.38;6.70;;;;;;;;;;4926755;28;20038;-84
2023/06/18 14:00:58;;;;;;;7.40;6.65;;;;;;;;;;4905028;28;20061;-84
2023/06/18 14:04:00;;;;;;;7.53;6.82;;;;;;;;;;4908532;28;20092;-84
2023/06/18 14:06:34;;;;;;;8.05;7.13;;;;;;;;;;4929290;28;20141;-85
2023/06/18 14:09:04;;;;;;;7.60;6.93;;;;;;;;;;4923836;28;20034;-85
2023/06/18 14:11:35;;;;;;;7.78;7.18;;;;;;;;;;4923541;28;20042;-85
2023/06/18 14:14:10;;;;;;;7.88;7.05;;;;;;;;;;4908561;28;21485;-84
2023/06/18 14:16:37;;;;;;;7.38;6.60;;;;;;;;;;4907348;28;20054;-85
2023/06/18 14:19:06;;;;;;;7.05;6.45;;;;;;;;;;4921451;28;20105;-84
2023/06/18 14:21:35;;;;;;;7.18;6.47;;;;;;;;;;4911768;28;20046;-84
2023/06/18 14:24:07;;;;;;;7.57;6.97;;;;;;;;;;4902434;28;22022;-84
2023/06/18 14:26:54;;;;;;;7.38;6.72;;;;;;;;;;4911823;28;20510;-84
2023/06/18 14:29:25;;;;;;;8.18;6.38;;;;;;;;;;4927159;28;20043;-84
2023/06/18 14:32:02;;;;;;;9.13;6.70;;;;;;;;;;4926446;28;20049;-84
2023/06/18 14:34:34;;;;;;;7.35;6.50;;;;;;;;;;4913246;28;20054;-84
2023/06/18 14:37:00;;;;;;;6.85;6.32;;;;;;;;;;4907713;28;20516;-84
2023/06/18 14:39:29;;;;;;;10.70;6.53;;;;;;;;;;4940601;28;20485;-84